Airfield :
LOGIN :

Register | Disclaimer

   EN    FR    IT 

 










Legend :    VFR   Marginal VFR   IFR   Intensive IFR   Very Intensive IFR
Visi :
Ceiling :
>= 8 km
>= 3000ft
5 to 8 km
1000 to 3000 ft
1500m to 5 km
500 to 1000 ft
800 to 1500m
200 to 500 ft
< 800m
< 200 ft
Symbols :   Thunderstorms  Fog  Heavy snow  Heavy precipitations  Wind > 20 kt
SIGMETs :     Misc.  Thunderstorms  Icing  Turbulence  Mountain Waves  Volcanic Ashes






- Airport Elevation : 203 ft
- IATA code : XMJ


LFBM - Mont-De-Marsan

CURRENT METAR :
  • 171900Z AUTO 03006KT 1000 0900 R27/1200N BCFG VV/// 03/03 Q1035 BECMG 0700 FG

EXPIRED METARs :
  • 171830Z AUTO 04005KT 1400 1100 R27/1800U BR VV/// 03/03 Q1034 BECMG 0700 FG
  • 171800Z AUTO 02005KT 350V060 4200 BR VV/// 04/03 Q1034 BECMG 0700 FG
  • 171730Z AUTO 01004KT 9999 BKN004 04/03 Q1034 BECMG 0700 FG VV///
  • 171700Z AUTO 01006KT CAVOK 05/03 Q1034 BECMG 0700 FG VV///
  • 171630Z AUTO 02007KT CAVOK 06/04 Q1034 BECMG 0700 FG VV///

TAF TAF LFBM
Valid from the 17 at 15:00 until the 18 at 15:00 UTC


171400Z 1715/1815 VRB02KT CAVOK
BECMG 1716/1718 OVC004
BECMG 1718/1720 0700 FG VV///
BECMG 1810/1812 5000 NSW BKN005



MET'MAP, your aeronautical weather chart ! - Copyright ORBIFLY December 2007 - Disclaimer

ORBIFLY MET'MAP TEAM :

Programming & Development : Alexandra Zaïnal
Concept & original design : Baudouin d'Aumeries
Assistance for programming : Marc-Olivier Méhu
Technical & hardware support : Manuel Goepfert

Contact : metmap@orbifly.com




SOURCES & CREDITS :

   NOAA